Terminal Aerodrome Forecast
Issued by NWS Indianapolis, IN

Home | Current Version | Previous Version | Text Only | Print | Product List | Glossary On
Versions: 1 2 3 4 5 6 7 8 9 10 11 12 13 14 15 16 17 18 19 20 21 22 23 24 25 26 27 28
000
FTUS43 KIND 171700
TAFIND
TAF
KIND 171726Z 1718/1824 21014G20KT P6SM FEW100 BKN250
     FM180100 20009KT P6SM FEW100 BKN250
     FM180800 19006KT P6SM SCT050 BKN100
     FM181500 29007KT P6SM SCT025 SCT080=

USA.gov is the U.S. government's official web portal to all federal, state and local government web resources and services.